Saturday, August 02, 2014
08:42 UTC
  |  Log In   |  Register Free
Airport Search:

Mccarley Fld Airport
(U02)

Mccarley Fld Airport Diagram
No Airport Diagram Available

FAA data valid effective July 24, 2014 until September 18, 2014 (unless otherwise noted).

 
 
 
 
 
 
 
 
 
 
 
 
 
 

Current Aviation Weather for Mccarley Fld Airport (U02)

The most recent METAR observation for KPIH was updated at: 1853 UTC
METAR Summary (Translated METAR)
KPIH
281853Z 24005KT 10SM CLR 28/06 A3022 RMK AO2 SLP180 T02780061
KIDA
(42.9 nm NE from KPIH)
281753Z 25007KT 10SM SCT110 31/06 A3023 RMK AO2 SLP190 HZ ALQDS T03060056 10306 20100 50000
TAF Summary (Translated TAF)
KPIH
020520Z 0206/0306 04007KT P6SM SCT120 FM022000 VRB06KT P6SM VCTS FEW100CB SCT120 FM030200 VRB05KT P6SM SCT120
KIDA
(42.9 nm NE from KPIH)
020520Z 0206/0306 36008KT P6SM SCT120 FM022000 VRB06KT P6SM VCTS FEW100CB BKN120 FM030200 VRB05KT P6SM SCT120
  Airport Weather Conditions for U02

Current weather conditions are
not available for U02


The nearest NOAA weather station
is at PIH, (21 nm SW from U02)
  
 Current Weather at PIH
61° F
Fair
Northeast winds at 5.8 mph
PIH NOAA Radar

Pressure: 30.18 in
Humidity: 70%
Wind: Northeast at 5.8 MPH (5 KT)
Dew Point: 51.1°F
Visibility: 10.00 mi


Airport Weather Forecast for U02

Translated METAR and TAF for KPIH
Translated METAR for KPIH (0835 UTC 02 August 2014)
found at http://aviationweather.gov/adds/metars/
 
METAR text: KPIH 020753Z AUTO 06005KT 10SM CLR 16/11 A3018 RMK AO2 SLP165 T01610106
Conditions at: KPIH (POCATELLO , ID, US) observed 0753 UTC 02 August 2014
Temperature: 16.1°C (61°F)
Dewpoint: 10.6°C (51°F) [RH = 70%]
Pressure (altimeter): 30.18 inches Hg (1022.1 mb)
[Sea-level pressure: 1016.5 mb]
Winds: from the ENE (60 degrees) at 6 MPH (5 knots; 2.6 m/s)
Visibility: 10 or more miles (16+ km)
Ceiling: at least 12,000 feet AGL
Clouds: sky clear below 12,000 feet AGL
Weather: automated observation with no human augmentation;
there may or may not be significant weather present at this time
Translated TAF for KPIH
Forecast for: KPIH (POCATELLO , ID, US)
TAF Text: KPIH 020520Z 0206/0306 04007KT P6SM SCT120
Forecast period: 0600 to 2000 UTC 02 August 2014
Forecast type: FROM: standard forecast or significant change
Winds: from the NE (40 degrees) at 8 MPH (7 knots; 3.6 m/s)
Visibility: 6 or more miles (10+ km)
Clouds: scattered clouds at 12000 feet AGL
Weather: no significant weather forecast for this period
TAF Text: FM022000 VRB06KT P6SM VCTS FEW100CB SCT120
Forecast period: 2000 UTC 02 August 2014 to 0200 UTC 03 August 2014
Forecast type: FROM: standard forecast or significant change
Winds: variable direction winds at 7 MPH (6 knots; 3.1 m/s)
Visibility: 6 or more miles (10+ km)
Clouds: few clouds at 10000 feet AGL
scattered clouds at 12000 feet AGL
Weather: VCTS  (thunderstorm in vicinity)
TAF Text: FM030200 VRB05KT P6SM SCT120
Forecast period: 0200 to 0600 UTC 03 August 2014
Forecast type: FROM: standard forecast or significant change
Winds: variable direction winds at 6 MPH (5 knots; 2.6 m/s)
Visibility: 6 or more miles (10+ km)
Clouds: scattered clouds at 12000 feet AGL
Weather: no significant weather forecast for this period

Find All Airport Services Find A Hotel Find A Rental Car Find A Golf Course Find A Restaurant $100 Hamburger



FBO's on the Field
FBO Company Facility Photos Services Transportation Aviation Fuel Prices: Prices include tax
Catering Weather Repair Courtesy Rental Type 100LL JetA JetA+ MOGAS 8087
 
Add another FBO Facility Photos Catering Weather Repair Courtesy Rental Type 100LL JetA JetA+ MOGAS 8087
Services Transportation Aviation Fuel Prices: Prices include tax
There are no FBO's currently reporting fuel at U02. List your FBO now


GlobalAir.com Airport Resource Center model-print
model-print
model-print
model-print